sensor_id;sensor_type;location;lat;lon;timestamp;temperature;humidity
29501;DHT22;16450;50.288;10.966;2023-04-01T00:02:16;8.60;99.90
29501;DHT22;16450;50.288;10.966;2023-04-01T00:05:17;8.60;99.90
29501;DHT22;16450;50.288;10.966;2023-04-01T00:08:19;8.60;99.90
29501;DHT22;16450;50.288;10.966;2023-04-01T00:11:22;8.60;99.90
29501;DHT22;16450;50.288;10.966;2023-04-01T00:14:24;8.60;99.90
29501;DHT22;16450;50.288;10.966;2023-04-01T00:17:25;8.60;99.90
29501;DHT22;16450;50.288;10.966;2023-04-01T00:20:28;8.60;99.90
29501;DHT22;16450;50.288;10.966;2023-04-01T00:23:30;8.60;99.90
29501;DHT22;16450;50.288;10.966;2023-04-01T00:26:32;8.60;99.90
29501;DHT22;16450;50.288;10.966;2023-04-01T00:29:34;8.50;99.90
29501;DHT22;16450;50.288;10.966;2023-04-01T00:32:37;8.60;99.90
29501;DHT22;16450;50.288;10.966;2023-04-01T00:35:39;8.50;99.90
29501;DHT22;16450;50.288;10.966;2023-04-01T00:38:42;8.60;99.90
29501;DHT22;16450;50.288;10.966;2023-04-01T00:41:44;8.50;99.90
29501;DHT22;16450;50.288;10.966;2023-04-01T00:44:51;8.50;99.90
29501;DHT22;16450;50.288;10.966;2023-04-01T00:47:54;8.50;99.90
29501;DHT22;16450;50.288;10.966;2023-04-01T00:51:01;8.50;99.90
29501;DHT22;16450;50.288;10.966;2023-04-01T00:54:04;8.50;99.90
29501;DHT22;16450;50.288;10.966;2023-04-01T00:57:13;8.50;99.90
29501;DHT22;16450;50.288;10.966;2023-04-01T01:00:17;8.50;99.90
29501;DHT22;16450;50.288;10.966;2023-04-01T01:03:19;8.50;99.90
29501;DHT22;16450;50.288;10.966;2023-04-01T01:06:46;8.40;99.90
29501;DHT22;16450;50.288;10.966;2023-04-01T01:16:06;8.40;99.90
29501;DHT22;16450;50.288;10.966;2023-04-01T01:36:33;8.30;99.90
29501;DHT22;16450;50.288;10.966;2023-04-01T01:39:41;8.30;99.90
29501;DHT22;16450;50.288;10.966;2023-04-01T01:42:47;8.30;99.90
29501;DHT22;16450;50.288;10.966;2023-04-01T01:45:54;8.30;99.90
29501;DHT22;16450;50.288;10.966;2023-04-01T01:48:58;8.30;99.90
29501;DHT22;16450;50.288;10.966;2023-04-01T01:52:01;8.30;99.90
29501;DHT22;16450;50.288;10.966;2023-04-01T01:55:22;8.30;99.90
29501;DHT22;16450;50.288;10.966;2023-04-01T01:58:31;8.30;99.90
29501;DHT22;16450;50.288;10.966;2023-04-01T02:01:37;8.30;99.90
29501;DHT22;16450;50.288;10.966;2023-04-01T02:04:42;8.30;99.90
29501;DHT22;16450;50.288;10.966;2023-04-01T02:07:50;8.30;99.90
29501;DHT22;16450;50.288;10.966;2023-04-01T02:11:00;8.30;99.90
29501;DHT22;16450;50.288;10.966;2023-04-01T02:14:04;8.30;99.90
29501;DHT22;16450;50.288;10.966;2023-04-01T02:17:15;8.30;99.90
29501;DHT22;16450;50.288;10.966;2023-04-01T02:20:21;8.30;99.90
29501;DHT22;16450;50.288;10.966;2023-04-01T02:23:24;8.30;99.90
29501;DHT22;16450;50.288;10.966;2023-04-01T02:26:27;8.30;99.90
29501;DHT22;16450;50.288;10.966;2023-04-01T02:29:29;8.30;99.90
29501;DHT22;16450;50.288;10.966;2023-04-01T02:32:32;8.30;99.90
29501;DHT22;16450;50.288;10.966;2023-04-01T02:35:36;8.30;99.90
29501;DHT22;16450;50.288;10.966;2023-04-01T02:38:39;8.30;99.90
29501;DHT22;16450;50.288;10.966;2023-04-01T02:41:43;8.30;99.90
29501;DHT22;16450;50.288;10.966;2023-04-01T02:44:45;8.30;99.90
29501;DHT22;16450;50.288;10.966;2023-04-01T02:47:47;8.30;99.90
29501;DHT22;16450;50.288;10.966;2023-04-01T02:50:49;8.30;99.90
29501;DHT22;16450;50.288;10.966;2023-04-01T02:53:51;8.30;99.90
29501;DHT22;16450;50.288;10.966;2023-04-01T02:56:53;8.30;99.90
29501;DHT22;16450;50.288;10.966;2023-04-01T02:59:55;8.40;99.90
29501;DHT22;16450;50.288;10.966;2023-04-01T03:02:57;8.30;99.90
29501;DHT22;16450;50.288;10.966;2023-04-01T03:06:08;8.40;99.90
29501;DHT22;16450;50.288;10.966;2023-04-01T03:09:10;8.30;99.90
29501;DHT22;16450;50.288;10.966;2023-04-01T03:12:12;8.30;99.90
29501;DHT22;16450;50.288;10.966;2023-04-01T03:15:14;8.30;99.90
29501;DHT22;16450;50.288;10.966;2023-04-01T03:18:16;8.40;99.90
29501;DHT22;16450;50.288;10.966;2023-04-01T03:21:20;8.40;99.90
29501;DHT22;16450;50.288;10.966;2023-04-01T03:24:22;8.40;99.90
29501;DHT22;16450;50.288;10.966;2023-04-01T03:27:24;8.30;99.90
29501;DHT22;16450;50.288;10.966;2023-04-01T03:30:26;8.30;99.90
29501;DHT22;16450;50.288;10.966;2023-04-01T03:33:28;8.30;99.90
29501;DHT22;16450;50.288;10.966;2023-04-01T03:36:30;8.30;99.90
29501;DHT22;16450;50.288;10.966;2023-04-01T03:39:32;8.30;99.90
29501;DHT22;16450;50.288;10.966;2023-04-01T03:42:34;8.30;99.90
29501;DHT22;16450;50.288;10.966;2023-04-01T03:45:44;8.30;99.90
29501;DHT22;16450;50.288;10.966;2023-04-01T03:48:46;8.30;99.90
29501;DHT22;16450;50.288;10.966;2023-04-01T03:51:48;8.10;99.90
29501;DHT22;16450;50.288;10.966;2023-04-01T03:54:50;8.20;99.90
29501;DHT22;16450;50.288;10.966;2023-04-01T03:57:52;8.20;99.90
29501;DHT22;16450;50.288;10.966;2023-04-01T04:00:53;8.20;99.90
29501;DHT22;16450;50.288;10.966;2023-04-01T04:03:56;8.20;99.90
29501;DHT22;16450;50.288;10.966;2023-04-01T04:06:59;8.20;99.90
29501;DHT22;16450;50.288;10.966;2023-04-01T04:10:00;8.20;99.90
29501;DHT22;16450;50.288;10.966;2023-04-01T04:13:02;8.20;99.90
29501;DHT22;16450;50.288;10.966;2023-04-01T04:16:04;8.20;99.90
29501;DHT22;16450;50.288;10.966;2023-04-01T04:19:06;8.20;99.90
29501;DHT22;16450;50.288;10.966;2023-04-01T04:22:09;8.10;99.90
29501;DHT22;16450;50.288;10.966;2023-04-01T04:25:10;8.10;99.90
29501;DHT22;16450;50.288;10.966;2023-04-01T04:28:12;8.10;99.90
29501;DHT22;16450;50.288;10.966;2023-04-01T04:31:19;8.10;99.90
29501;DHT22;16450;50.288;10.966;2023-04-01T04:34:22;8.10;99.90
29501;DHT22;16450;50.288;10.966;2023-04-01T04:37:24;8.10;99.90
29501;DHT22;16450;50.288;10.966;2023-04-01T04:40:27;8.20;99.90
29501;DHT22;16450;50.288;10.966;2023-04-01T04:43:29;8.10;99.90
29501;DHT22;16450;50.288;10.966;2023-04-01T04:46:31;8.10;99.90
29501;DHT22;16450;50.288;10.966;2023-04-01T04:49:32;8.10;99.90
29501;DHT22;16450;50.288;10.966;2023-04-01T04:52:34;8.20;99.90
29501;DHT22;16450;50.288;10.966;2023-04-01T04:55:37;8.10;99.90
29501;DHT22;16450;50.288;10.966;2023-04-01T04:58:39;8.10;99.90
29501;DHT22;16450;50.288;10.966;2023-04-01T05:01:41;8.10;99.90
29501;DHT22;16450;50.288;10.966;2023-04-01T05:04:43;8.10;99.90
29501;DHT22;16450;50.288;10.966;2023-04-01T05:07:45;8.10;99.90
29501;DHT22;16450;50.288;10.966;2023-04-01T05:10:48;8.10;99.90
29501;DHT22;16450;50.288;10.966;2023-04-01T05:13:50;8.10;99.90
29501;DHT22;16450;50.288;10.966;2023-04-01T05:16:52;8.10;99.90
29501;DHT22;16450;50.288;10.966;2023-04-01T05:19:54;8.10;99.90
29501;DHT22;16450;50.288;10.966;2023-04-01T05:22:56;8.10;99.90
29501;DHT22;16450;50.288;10.966;2023-04-01T05:26:02;8.10;99.90
29501;DHT22;16450;50.288;10.966;2023-04-01T05:29:04;8.20;99.90
29501;DHT22;16450;50.288;10.966;2023-04-01T05:32:06;8.20;99.90
29501;DHT22;16450;50.288;10.966;2023-04-01T05:35:08;8.20;99.90
29501;DHT22;16450;50.288;10.966;2023-04-01T05:38:10;8.20;99.90
29501;DHT22;16450;50.288;10.966;2023-04-01T05:41:13;8.20;99.90
29501;DHT22;16450;50.288;10.966;2023-04-01T05:44:15;8.30;99.90
29501;DHT22;16450;50.288;10.966;2023-04-01T05:47:16;8.20;99.90
29501;DHT22;16450;50.288;10.966;2023-04-01T05:50:19;8.30;99.90
29501;DHT22;16450;50.288;10.966;2023-04-01T05:53:21;8.30;99.90
29501;DHT22;16450;50.288;10.966;2023-04-01T05:56:23;8.40;99.90
29501;DHT22;16450;50.288;10.966;2023-04-01T05:59:26;8.40;99.90
29501;DHT22;16450;50.288;10.966;2023-04-01T06:02:28;8.50;99.90
29501;DHT22;16450;50.288;10.966;2023-04-01T06:05:42;8.50;99.90
29501;DHT22;16450;50.288;10.966;2023-04-01T06:08:44;8.50;99.90
29501;DHT22;16450;50.288;10.966;2023-04-01T06:12:04;8.50;99.90
29501;DHT22;16450;50.288;10.966;2023-04-01T06:18:55;8.60;99.90
29501;DHT22;16450;50.288;10.966;2023-04-01T06:55:35;8.90;99.90
29501;DHT22;16450;50.288;10.966;2023-04-01T06:59:05;9.10;99.90
29501;DHT22;16450;50.288;10.966;2023-04-01T07:05:35;9.20;99.90
29501;DHT22;16450;50.288;10.966;2023-04-01T07:08:39;9.30;99.90
29501;DHT22;16450;50.288;10.966;2023-04-01T07:11:42;9.30;99.90
29501;DHT22;16450;50.288;10.966;2023-04-01T07:14:45;9.30;99.90
29501;DHT22;16450;50.288;10.966;2023-04-01T07:18:05;9.40;99.90
29501;DHT22;16450;50.288;10.966;2023-04-01T07:21:23;9.40;99.90
29501;DHT22;16450;50.288;10.966;2023-04-01T07:24:56;9.50;99.90
29501;DHT22;16450;50.288;10.966;2023-04-01T07:28:11;9.50;99.90
29501;DHT22;16450;50.288;10.966;2023-04-01T07:31:59;9.50;99.90
29501;DHT22;16450;50.288;10.966;2023-04-01T07:34:46;9.50;99.90
29501;DHT22;16450;50.288;10.966;2023-04-01T07:38:19;9.60;99.90
29501;DHT22;16450;50.288;10.966;2023-04-01T07:48:39;9.50;99.90
29501;DHT22;16450;50.288;10.966;2023-04-01T07:58:58;9.50;99.90
29501;DHT22;16450;50.288;10.966;2023-04-01T08:13:03;9.50;99.90
29501;DHT22;16450;50.288;10.966;2023-04-01T08:16:22;9.60;99.90
29501;DHT22;16450;50.288;10.966;2023-04-01T08:23:47;9.60;99.90
29501;DHT22;16450;50.288;10.966;2023-04-01T08:26:53;9.60;99.90
29501;DHT22;16450;50.288;10.966;2023-04-01T08:30:18;9.60;99.90
29501;DHT22;16450;50.288;10.966;2023-04-01T08:33:31;9.60;99.90
29501;DHT22;16450;50.288;10.966;2023-04-01T08:36:40;9.60;99.90
29501;DHT22;16450;50.288;10.966;2023-04-01T08:39:48;9.60;99.90
29501;DHT22;16450;50.288;10.966;2023-04-01T08:43:09;9.60;99.90
29501;DHT22;16450;50.288;10.966;2023-04-01T08:49:44;9.60;99.90
29501;DHT22;16450;50.288;10.966;2023-04-01T08:53:03;9.60;99.90
29501;DHT22;16450;50.288;10.966;2023-04-01T08:56:34;9.70;99.90
29501;DHT22;16450;50.288;10.966;2023-04-01T08:59:50;9.60;99.90
29501;DHT22;16450;50.288;10.966;2023-04-01T09:06:52;9.60;99.90
29501;DHT22;16450;50.288;10.966;2023-04-01T09:14:02;9.60;99.90
29501;DHT22;16450;50.288;10.966;2023-04-01T09:24:29;9.60;99.90
29501;DHT22;16450;50.288;10.966;2023-04-01T09:35:10;9.50;99.90
29501;DHT22;16450;50.288;10.966;2023-04-01T09:39:16;9.50;99.90
29501;DHT22;16450;50.288;10.966;2023-04-01T09:52:06;9.60;99.90
29501;DHT22;16450;50.288;10.966;2023-04-01T10:43:06;10.70;99.90
29501;DHT22;16450;50.288;10.966;2023-04-01T10:56:55;10.90;99.90
29501;DHT22;16450;50.288;10.966;2023-04-01T11:00:18;10.90;99.90
29501;DHT22;16450;50.288;10.966;2023-04-01T11:17:56;10.60;99.90
29501;DHT22;16450;50.288;10.966;2023-04-01T11:21:55;10.60;99.90
29501;DHT22;16450;50.288;10.966;2023-04-01T11:25:16;10.60;99.90
29501;DHT22;16450;50.288;10.966;2023-04-01T11:31:58;10.50;99.90
29501;DHT22;16450;50.288;10.966;2023-04-01T11:42:04;10.50;99.90
29501;DHT22;16450;50.288;10.966;2023-04-01T11:51:58;10.40;99.90
29501;DHT22;16450;50.288;10.966;2023-04-01T12:02:09;10.40;99.90
29501;DHT22;16450;50.288;10.966;2023-04-01T12:09:13;10.40;99.90
29501;DHT22;16450;50.288;10.966;2023-04-01T12:12:36;10.30;99.90
29501;DHT22;16450;50.288;10.966;2023-04-01T12:16:28;10.30;99.90
29501;DHT22;16450;50.288;10.966;2023-04-01T12:19:43;10.20;99.90
29501;DHT22;16450;50.288;10.966;2023-04-01T12:26:59;10.20;99.90
29501;DHT22;16450;50.288;10.966;2023-04-01T12:37:12;10.40;99.90
29501;DHT22;16450;50.288;10.966;2023-04-01T12:40:31;10.40;99.90
29501;DHT22;16450;50.288;10.966;2023-04-01T12:43:58;10.50;99.90
29501;DHT22;16450;50.288;10.966;2023-04-01T12:50:55;10.60;99.90
29501;DHT22;16450;50.288;10.966;2023-04-01T13:07:49;10.80;99.90
29501;DHT22;16450;50.288;10.966;2023-04-01T13:11:33;10.80;99.90
29501;DHT22;16450;50.288;10.966;2023-04-01T13:18:32;10.80;99.90
29501;DHT22;16450;50.288;10.966;2023-04-01T13:25:06;10.90;99.90
29501;DHT22;16450;50.288;10.966;2023-04-01T13:28:21;10.90;99.90
29501;DHT22;16450;50.288;10.966;2023-04-01T13:35:34;10.90;99.90
29501;DHT22;16450;50.288;10.966;2023-04-01T13:45:23;10.90;99.90
29501;DHT22;16450;50.288;10.966;2023-04-01T13:58:55;10.90;99.90
29501;DHT22;16450;50.288;10.966;2023-04-01T14:15:39;10.60;99.90
29501;DHT22;16450;50.288;10.966;2023-04-01T14:21:50;10.60;99.90
29501;DHT22;16450;50.288;10.966;2023-04-01T14:41:47;10.40;99.90
29501;DHT22;16450;50.288;10.966;2023-04-01T14:49:05;10.40;99.90
29501;DHT22;16450;50.288;10.966;2023-04-01T14:58:50;10.40;99.90
29501;DHT22;16450;50.288;10.966;2023-04-01T15:02:12;10.40;99.90
29501;DHT22;16450;50.288;10.966;2023-04-01T15:05:45;10.40;99.90
29501;DHT22;16450;50.288;10.966;2023-04-01T15:22:43;10.40;99.90
29501;DHT22;16450;50.288;10.966;2023-04-01T15:26:20;10.40;99.90
29501;DHT22;16450;50.288;10.966;2023-04-01T15:36:38;10.30;99.90
29501;DHT22;16450;50.288;10.966;2023-04-01T15:49:47;10.30;99.90
29501;DHT22;16450;50.288;10.966;2023-04-01T15:56:35;10.20;99.90
29501;DHT22;16450;50.288;10.966;2023-04-01T16:03:24;10.20;99.90
29501;DHT22;16450;50.288;10.966;2023-04-01T16:13:37;10.10;99.90
29501;DHT22;16450;50.288;10.966;2023-04-01T16:23:36;10.00;99.90
29501;DHT22;16450;50.288;10.966;2023-04-01T16:33:45;9.90;99.90
29501;DHT22;16450;50.288;10.966;2023-04-01T16:37:15;9.90;99.90
29501;DHT22;16450;50.288;10.966;2023-04-01T16:43:28;9.90;99.90
29501;DHT22;16450;50.288;10.966;2023-04-01T16:50:05;9.90;99.90
29501;DHT22;16450;50.288;10.966;2023-04-01T16:53:21;9.90;99.90
29501;DHT22;16450;50.288;10.966;2023-04-01T16:56:42;9.90;99.90
29501;DHT22;16450;50.288;10.966;2023-04-01T17:00:15;9.90;99.90
29501;DHT22;16450;50.288;10.966;2023-04-01T17:03:36;9.90;99.90
29501;DHT22;16450;50.288;10.966;2023-04-01T17:06:44;9.90;99.90
29501;DHT22;16450;50.288;10.966;2023-04-01T17:13:11;9.80;99.90
29501;DHT22;16450;50.288;10.966;2023-04-01T17:23:28;9.80;99.90
29501;DHT22;16450;50.288;10.966;2023-04-01T17:26:53;9.70;99.90
29501;DHT22;16450;50.288;10.966;2023-04-01T17:36:36;9.70;99.90
29501;DHT22;16450;50.288;10.966;2023-04-01T17:49:37;9.60;99.90
29501;DHT22;16450;50.288;10.966;2023-04-01T17:53:05;9.50;99.90
29501;DHT22;16450;50.288;10.966;2023-04-01T17:56:20;9.40;99.90
29501;DHT22;16450;50.288;10.966;2023-04-01T17:59:38;9.50;99.90
29501;DHT22;16450;50.288;10.966;2023-04-01T18:02:44;9.50;99.90
29501;DHT22;16450;50.288;10.966;2023-04-01T18:09:20;9.50;99.90
29501;DHT22;16450;50.288;10.966;2023-04-01T18:25:42;9.40;99.90
29501;DHT22;16450;50.288;10.966;2023-04-01T18:28:53;9.30;99.90
29501;DHT22;16450;50.288;10.966;2023-04-01T18:32:31;9.30;99.90
29501;DHT22;16450;50.288;10.966;2023-04-01T18:39:22;9.30;99.90
29501;DHT22;16450;50.288;10.966;2023-04-01T18:43:01;9.30;99.90
29501;DHT22;16450;50.288;10.966;2023-04-01T18:46:22;9.30;99.90
29501;DHT22;16450;50.288;10.966;2023-04-01T18:53:24;9.30;99.90
29501;DHT22;16450;50.288;10.966;2023-04-01T18:56:41;9.20;99.90
29501;DHT22;16450;50.288;10.966;2023-04-01T19:00:03;9.20;99.90
29501;DHT22;16450;50.288;10.966;2023-04-01T19:09:47;9.20;99.90
29501;DHT22;16450;50.288;10.966;2023-04-01T19:19:34;9.20;99.90
29501;DHT22;16450;50.288;10.966;2023-04-01T19:22:56;9.20;99.90
29501;DHT22;16450;50.288;10.966;2023-04-01T19:26:13;9.20;99.90
29501;DHT22;16450;50.288;10.966;2023-04-01T19:29:25;9.20;99.90
29501;DHT22;16450;50.288;10.966;2023-04-01T19:32:48;9.20;99.90
29501;DHT22;16450;50.288;10.966;2023-04-01T19:36:58;9.20;99.90
29501;DHT22;16450;50.288;10.966;2023-04-01T19:40:20;9.20;99.90
29501;DHT22;16450;50.288;10.966;2023-04-01T19:44:31;9.10;99.90
29501;DHT22;16450;50.288;10.966;2023-04-01T19:50:38;9.20;99.90
29501;DHT22;16450;50.288;10.966;2023-04-01T19:53:57;9.20;99.90
29501;DHT22;16450;50.288;10.966;2023-04-01T20:06:39;9.10;99.90
29501;DHT22;16450;50.288;10.966;2023-04-01T20:10:09;9.10;99.90
29501;DHT22;16450;50.288;10.966;2023-04-01T20:17:02;9.10;99.90
29501;DHT22;16450;50.288;10.966;2023-04-01T20:26:38;9.00;99.90
29501;DHT22;16450;50.288;10.966;2023-04-01T20:40:34;9.00;99.90
29501;DHT22;16450;50.288;10.966;2023-04-01T20:50:51;8.90;99.90
29501;DHT22;16450;50.288;10.966;2023-04-01T20:54:15;8.90;99.90
29501;DHT22;16450;50.288;10.966;2023-04-01T20:57:49;8.90;99.90
29501;DHT22;16450;50.288;10.966;2023-04-01T21:07:49;8.80;99.90
29501;DHT22;16450;50.288;10.966;2023-04-01T21:11:25;8.80;99.90
29501;DHT22;16450;50.288;10.966;2023-04-01T21:15:07;8.80;99.90
29501;DHT22;16450;50.288;10.966;2023-04-01T21:28:45;8.70;99.90
29501;DHT22;16450;50.288;10.966;2023-04-01T21:35:28;8.70;99.90
29501;DHT22;16450;50.288;10.966;2023-04-01T21:41:48;8.70;99.90
29501;DHT22;16450;50.288;10.966;2023-04-01T21:48:29;8.70;99.90
29501;DHT22;16450;50.288;10.966;2023-04-01T21:55:30;8.60;99.90
29501;DHT22;16450;50.288;10.966;2023-04-01T22:12:15;8.60;99.90
29501;DHT22;16450;50.288;10.966;2023-04-01T22:18:38;8.60;99.90
29501;DHT22;16450;50.288;10.966;2023-04-01T22:21:56;8.60;99.90
29501;DHT22;16450;50.288;10.966;2023-04-01T22:25:11;8.60;99.90
29501;DHT22;16450;50.288;10.966;2023-04-01T22:28:22;8.60;99.90
29501;DHT22;16450;50.288;10.966;2023-04-01T22:38:44;8.60;99.90
29501;DHT22;16450;50.288;10.966;2023-04-01T22:53:08;8.60;99.90
29501;DHT22;16450;50.288;10.966;2023-04-01T22:55:40;8.60;99.90
29501;DHT22;16450;50.288;10.966;2023-04-01T22:59:12;8.70;99.90
29501;DHT22;16450;50.288;10.966;2023-04-01T23:02:28;8.60;99.90
29501;DHT22;16450;50.288;10.966;2023-04-01T23:05:31;8.60;99.90
29501;DHT22;16450;50.288;10.966;2023-04-01T23:09:02;8.60;99.90
29501;DHT22;16450;50.288;10.966;2023-04-01T23:12:26;8.60;99.90
29501;DHT22;16450;50.288;10.966;2023-04-01T23:15:29;8.60;99.90
29501;DHT22;16450;50.288;10.966;2023-04-01T23:18:56;8.60;99.90
29501;DHT22;16450;50.288;10.966;2023-04-01T23:22:12;8.60;99.90
29501;DHT22;16450;50.288;10.966;2023-04-01T23:25:35;8.40;99.90
29501;DHT22;16450;50.288;10.966;2023-04-01T23:28:49;8.60;99.90
29501;DHT22;16450;50.288;10.966;2023-04-01T23:32:00;8.60;99.90
29501;DHT22;16450;50.288;10.966;2023-04-01T23:35:02;8.60;99.90
29501;DHT22;16450;50.288;10.966;2023-04-01T23:38:04;8.50;99.90
29501;DHT22;16450;50.288;10.966;2023-04-01T23:41:07;8.50;99.90
29501;DHT22;16450;50.288;10.966;2023-04-01T23:44:12;8.50;99.90
29501;DHT22;16450;50.288;10.966;2023-04-01T23:47:21;8.50;99.90
29501;DHT22;16450;50.288;10.966;2023-04-01T23:50:25;8.50;99.90
29501;DHT22;16450;50.288;10.966;2023-04-01T23:53:33;8.50;99.90
29501;DHT22;16450;50.288;10.966;2023-04-01T23:56:42;8.40;99.90
